sensor_id;sensor_type;location;lat;lon;timestamp;temperature;humidity
64501;DHT22;50874;24.150;-110.320;2023-08-06T00:01:22;34.90;99.90
64501;DHT22;50874;24.150;-110.320;2023-08-06T00:03:48;34.80;99.90
64501;DHT22;50874;24.150;-110.320;2023-08-06T00:06:15;34.70;99.90
64501;DHT22;50874;24.150;-110.320;2023-08-06T00:08:41;34.70;99.90
64501;DHT22;50874;24.150;-110.320;2023-08-06T00:11:08;34.70;99.90
64501;DHT22;50874;24.150;-110.320;2023-08-06T00:13:34;34.50;99.90
64501;DHT22;50874;24.150;-110.320;2023-08-06T00:16:11;34.40;99.90
64501;DHT22;50874;24.150;-110.320;2023-08-06T00:18:38;34.10;99.90
64501;DHT22;50874;24.150;-110.320;2023-08-06T00:21:05;33.90;99.90
64501;DHT22;50874;24.150;-110.320;2023-08-06T00:23:31;33.90;99.90
64501;DHT22;50874;24.150;-110.320;2023-08-06T00:25:58;33.60;99.90
64501;DHT22;50874;24.150;-110.320;2023-08-06T00:28:24;33.30;99.90
64501;DHT22;50874;24.150;-110.320;2023-08-06T00:30:55;33.10;99.90
64501;DHT22;50874;24.150;-110.320;2023-08-06T00:33:22;32.80;99.90
64501;DHT22;50874;24.150;-110.320;2023-08-06T00:35:48;32.60;99.90
64501;DHT22;50874;24.150;-110.320;2023-08-06T00:38:15;32.60;99.90
64501;DHT22;50874;24.150;-110.320;2023-08-06T00:40:41;32.60;99.90
64501;DHT22;50874;24.150;-110.320;2023-08-06T00:43:08;32.80;99.90
64501;DHT22;50874;24.150;-110.320;2023-08-06T00:45:36;33.10;99.90
64501;DHT22;50874;24.150;-110.320;2023-08-06T00:48:05;33.10;99.90
64501;DHT22;50874;24.150;-110.320;2023-08-06T00:50:32;33.10;99.90
64501;DHT22;50874;24.150;-110.320;2023-08-06T00:52:59;32.90;99.90
64501;DHT22;50874;24.150;-110.320;2023-08-06T00:55:26;32.80;99.90
64501;DHT22;50874;24.150;-110.320;2023-08-06T00:57:53;32.60;99.90
64501;DHT22;50874;24.150;-110.320;2023-08-06T01:00:22;32.50;99.90
64501;DHT22;50874;24.150;-110.320;2023-08-06T01:02:50;32.60;99.90
64501;DHT22;50874;24.150;-110.320;2023-08-06T01:05:16;32.70;99.90
64501;DHT22;50874;24.150;-110.320;2023-08-06T01:10:57;32.70;99.90
64501;DHT22;50874;24.150;-110.320;2023-08-06T01:13:47;32.70;99.90
64501;DHT22;50874;24.150;-110.320;2023-08-06T01:16:17;32.70;99.90
64501;DHT22;50874;24.150;-110.320;2023-08-06T01:18:44;32.80;99.90
64501;DHT22;50874;24.150;-110.320;2023-08-06T01:21:19;32.60;99.90
64501;DHT22;50874;24.150;-110.320;2023-08-06T01:23:47;32.50;99.90
64501;DHT22;50874;24.150;-110.320;2023-08-06T01:29:25;32.30;99.90
64501;DHT22;50874;24.150;-110.320;2023-08-06T01:31:56;32.30;99.90
64501;DHT22;50874;24.150;-110.320;2023-08-06T01:34:30;32.20;99.90
64501;DHT22;50874;24.150;-110.320;2023-08-06T01:36:58;32.10;99.90
64501;DHT22;50874;24.150;-110.320;2023-08-06T01:39:25;32.10;99.90
64501;DHT22;50874;24.150;-110.320;2023-08-06T01:41:52;32.10;99.90
64501;DHT22;50874;24.150;-110.320;2023-08-06T01:44:18;32.10;99.90
64501;DHT22;50874;24.150;-110.320;2023-08-06T01:46:45;32.00;99.90
64501;DHT22;50874;24.150;-110.320;2023-08-06T01:49:11;32.00;99.90
64501;DHT22;50874;24.150;-110.320;2023-08-06T01:51:38;31.90;99.90
64501;DHT22;50874;24.150;-110.320;2023-08-06T01:54:04;31.80;99.90
64501;DHT22;50874;24.150;-110.320;2023-08-06T01:56:31;31.80;99.90
64501;DHT22;50874;24.150;-110.320;2023-08-06T01:58:57;31.80;99.90
64501;DHT22;50874;24.150;-110.320;2023-08-06T02:01:23;31.80;99.90
64501;DHT22;50874;24.150;-110.320;2023-08-06T02:03:50;31.70;99.90
64501;DHT22;50874;24.150;-110.320;2023-08-06T02:06:16;31.80;99.90
64501;DHT22;50874;24.150;-110.320;2023-08-06T02:08:43;31.80;99.90
64501;DHT22;50874;24.150;-110.320;2023-08-06T02:11:09;31.80;99.90
64501;DHT22;50874;24.150;-110.320;2023-08-06T02:13:36;31.80;99.90
64501;DHT22;50874;24.150;-110.320;2023-08-06T02:16:02;31.90;99.90
64501;DHT22;50874;24.150;-110.320;2023-08-06T02:18:28;31.80;99.90
64501;DHT22;50874;24.150;-110.320;2023-08-06T02:20:56;31.70;99.90
64501;DHT22;50874;24.150;-110.320;2023-08-06T02:23:26;31.60;99.90
64501;DHT22;50874;24.150;-110.320;2023-08-06T02:26:03;31.60;99.90
64501;DHT22;50874;24.150;-110.320;2023-08-06T02:28:30;31.60;99.90
64501;DHT22;50874;24.150;-110.320;2023-08-06T02:30:57;31.50;99.90
64501;DHT22;50874;24.150;-110.320;2023-08-06T02:33:23;31.50;99.90
64501;DHT22;50874;24.150;-110.320;2023-08-06T02:35:50;31.50;99.90
64501;DHT22;50874;24.150;-110.320;2023-08-06T02:38:16;31.40;99.90
64501;DHT22;50874;24.150;-110.320;2023-08-06T02:40:46;31.40;99.90
64501;DHT22;50874;24.150;-110.320;2023-08-06T02:43:15;31.40;99.90
64501;DHT22;50874;24.150;-110.320;2023-08-06T02:45:42;31.40;99.90
64501;DHT22;50874;24.150;-110.320;2023-08-06T02:48:08;31.40;99.90
64501;DHT22;50874;24.150;-110.320;2023-08-06T02:50:38;31.40;99.90
64501;DHT22;50874;24.150;-110.320;2023-08-06T02:53:06;31.30;99.90
64501;DHT22;50874;24.150;-110.320;2023-08-06T02:55:33;31.30;99.90
64501;DHT22;50874;24.150;-110.320;2023-08-06T02:58:00;31.30;99.90
64501;DHT22;50874;24.150;-110.320;2023-08-06T03:00:27;31.30;99.90
64501;DHT22;50874;24.150;-110.320;2023-08-06T03:02:54;31.20;99.90
64501;DHT22;50874;24.150;-110.320;2023-08-06T03:05:21;31.10;99.90
64501;DHT22;50874;24.150;-110.320;2023-08-06T03:07:47;31.00;99.90
64501;DHT22;50874;24.150;-110.320;2023-08-06T03:10:14;31.10;99.90
64501;DHT22;50874;24.150;-110.320;2023-08-06T03:12:40;31.10;99.90
64501;DHT22;50874;24.150;-110.320;2023-08-06T03:15:09;31.20;99.90
64501;DHT22;50874;24.150;-110.320;2023-08-06T03:17:35;31.20;99.90
64501;DHT22;50874;24.150;-110.320;2023-08-06T03:20:02;31.20;99.90
64501;DHT22;50874;24.150;-110.320;2023-08-06T03:22:28;31.20;99.90
64501;DHT22;50874;24.150;-110.320;2023-08-06T03:24:55;31.10;99.90
64501;DHT22;50874;24.150;-110.320;2023-08-06T03:27:21;31.00;99.90
64501;DHT22;50874;24.150;-110.320;2023-08-06T03:29:50;31.10;99.90
64501;DHT22;50874;24.150;-110.320;2023-08-06T03:32:17;31.10;99.90
64501;DHT22;50874;24.150;-110.320;2023-08-06T03:34:43;31.20;99.90
64501;DHT22;50874;24.150;-110.320;2023-08-06T03:37:10;31.20;99.90
64501;DHT22;50874;24.150;-110.320;2023-08-06T03:39:37;31.10;99.90
64501;DHT22;50874;24.150;-110.320;2023-08-06T03:42:03;31.10;99.90
64501;DHT22;50874;24.150;-110.320;2023-08-06T03:44:30;31.10;99.90
64501;DHT22;50874;24.150;-110.320;2023-08-06T03:46:56;31.10;99.90
64501;DHT22;50874;24.150;-110.320;2023-08-06T03:49:23;31.00;99.90
64501;DHT22;50874;24.150;-110.320;2023-08-06T03:51:49;30.90;99.90
64501;DHT22;50874;24.150;-110.320;2023-08-06T03:54:18;30.90;99.90
64501;DHT22;50874;24.150;-110.320;2023-08-06T03:56:45;30.90;99.90
64501;DHT22;50874;24.150;-110.320;2023-08-06T03:59:11;30.90;99.90
64501;DHT22;50874;24.150;-110.320;2023-08-06T04:01:38;31.00;99.90
64501;DHT22;50874;24.150;-110.320;2023-08-06T04:04:04;31.00;99.90
64501;DHT22;50874;24.150;-110.320;2023-08-06T04:06:31;30.90;99.90
64501;DHT22;50874;24.150;-110.320;2023-08-06T04:08:57;31.00;99.90
64501;DHT22;50874;24.150;-110.320;2023-08-06T04:11:24;31.00;99.90
64501;DHT22;50874;24.150;-110.320;2023-08-06T05:02:05;30.50;99.90
64501;DHT22;50874;24.150;-110.320;2023-08-06T05:04:32;31.30;99.90
64501;DHT22;50874;24.150;-110.320;2023-08-06T05:06:58;31.20;99.90
64501;DHT22;50874;24.150;-110.320;2023-08-06T05:09:26;31.20;99.90
64501;DHT22;50874;24.150;-110.320;2023-08-06T05:11:52;31.20;99.90
64501;DHT22;50874;24.150;-110.320;2023-08-06T05:14:19;31.10;99.90
64501;DHT22;50874;24.150;-110.320;2023-08-06T05:16:45;31.10;99.90
64501;DHT22;50874;24.150;-110.320;2023-08-06T05:19:12;31.10;99.90
64501;DHT22;50874;24.150;-110.320;2023-08-06T05:21:38;31.10;99.90
64501;DHT22;50874;24.150;-110.320;2023-08-06T05:24:05;31.10;99.90
64501;DHT22;50874;24.150;-110.320;2023-08-06T05:26:31;31.10;99.90
64501;DHT22;50874;24.150;-110.320;2023-08-06T05:28:57;31.10;99.90
64501;DHT22;50874;24.150;-110.320;2023-08-06T05:31:24;31.10;99.90
64501;DHT22;50874;24.150;-110.320;2023-08-06T05:33:50;31.00;99.90
64501;DHT22;50874;24.150;-110.320;2023-08-06T05:36:17;31.00;99.90
64501;DHT22;50874;24.150;-110.320;2023-08-06T05:38:43;31.00;99.90
64501;DHT22;50874;24.150;-110.320;2023-08-06T05:41:10;31.00;99.90
64501;DHT22;50874;24.150;-110.320;2023-08-06T05:43:36;31.00;99.90
64501;DHT22;50874;24.150;-110.320;2023-08-06T05:46:03;31.00;99.90
64501;DHT22;50874;24.150;-110.320;2023-08-06T05:48:30;31.00;99.90
64501;DHT22;50874;24.150;-110.320;2023-08-06T05:50:57;30.90;99.90
64501;DHT22;50874;24.150;-110.320;2023-08-06T05:53:24;30.90;99.90
64501;DHT22;50874;24.150;-110.320;2023-08-06T05:55:51;30.90;99.90
64501;DHT22;50874;24.150;-110.320;2023-08-06T05:58:17;30.90;99.90
64501;DHT22;50874;24.150;-110.320;2023-08-06T06:00:46;30.90;99.90
64501;DHT22;50874;24.150;-110.320;2023-08-06T06:03:12;30.80;99.90
64501;DHT22;50874;24.150;-110.320;2023-08-06T06:05:39;30.80;99.90
64501;DHT22;50874;24.150;-110.320;2023-08-06T06:08:05;30.70;99.90
64501;DHT22;50874;24.150;-110.320;2023-08-06T06:10:32;30.70;99.90
64501;DHT22;50874;24.150;-110.320;2023-08-06T06:12:58;30.70;99.90
64501;DHT22;50874;24.150;-110.320;2023-08-06T06:15:25;30.70;99.90
64501;DHT22;50874;24.150;-110.320;2023-08-06T06:17:51;30.60;99.90
64501;DHT22;50874;24.150;-110.320;2023-08-06T06:20:17;30.60;99.90
64501;DHT22;50874;24.150;-110.320;2023-08-06T06:22:44;30.60;99.90
64501;DHT22;50874;24.150;-110.320;2023-08-06T06:25:10;30.60;99.90
64501;DHT22;50874;24.150;-110.320;2023-08-06T06:27:37;30.50;99.90
64501;DHT22;50874;24.150;-110.320;2023-08-06T06:30:04;30.50;99.90
64501;DHT22;50874;24.150;-110.320;2023-08-06T06:32:30;30.50;99.90
64501;DHT22;50874;24.150;-110.320;2023-08-06T06:34:57;30.50;99.90
64501;DHT22;50874;24.150;-110.320;2023-08-06T06:37:24;30.40;99.90
64501;DHT22;50874;24.150;-110.320;2023-08-06T06:39:51;30.40;99.90
64501;DHT22;50874;24.150;-110.320;2023-08-06T06:42:17;30.40;99.90
64501;DHT22;50874;24.150;-110.320;2023-08-06T06:44:44;30.40;99.90
64501;DHT22;50874;24.150;-110.320;2023-08-06T06:47:10;30.40;99.90
64501;DHT22;50874;24.150;-110.320;2023-08-06T06:49:36;30.40;99.90
64501;DHT22;50874;24.150;-110.320;2023-08-06T06:52:03;30.30;99.90
64501;DHT22;50874;24.150;-110.320;2023-08-06T06:54:30;30.30;99.90
64501;DHT22;50874;24.150;-110.320;2023-08-06T06:56:57;30.30;99.90
64501;DHT22;50874;24.150;-110.320;2023-08-06T06:59:23;30.20;99.90
64501;DHT22;50874;24.150;-110.320;2023-08-06T07:01:50;30.10;99.90
64501;DHT22;50874;24.150;-110.320;2023-08-06T07:04:16;30.10;99.90
64501;DHT22;50874;24.150;-110.320;2023-08-06T07:06:43;30.00;99.90
64501;DHT22;50874;24.150;-110.320;2023-08-06T07:09:09;30.00;99.90
64501;DHT22;50874;24.150;-110.320;2023-08-06T07:11:36;29.90;99.90
64501;DHT22;50874;24.150;-110.320;2023-08-06T07:14:02;29.90;99.90
64501;DHT22;50874;24.150;-110.320;2023-08-06T07:16:29;29.80;99.90
64501;DHT22;50874;24.150;-110.320;2023-08-06T07:18:55;29.70;99.90
64501;DHT22;50874;24.150;-110.320;2023-08-06T07:21:22;29.70;99.90
64501;DHT22;50874;24.150;-110.320;2023-08-06T07:23:48;29.70;99.90
64501;DHT22;50874;24.150;-110.320;2023-08-06T07:26:17;29.70;99.90
64501;DHT22;50874;24.150;-110.320;2023-08-06T07:28:44;29.70;99.90
64501;DHT22;50874;24.150;-110.320;2023-08-06T07:31:11;29.70;99.90
64501;DHT22;50874;24.150;-110.320;2023-08-06T07:33:37;29.70;99.90
64501;DHT22;50874;24.150;-110.320;2023-08-06T07:36:13;29.70;99.90
64501;DHT22;50874;24.150;-110.320;2023-08-06T07:38:40;29.70;99.90
64501;DHT22;50874;24.150;-110.320;2023-08-06T07:41:06;29.70;99.90
64501;DHT22;50874;24.150;-110.320;2023-08-06T07:43:33;29.70;99.90
64501;DHT22;50874;24.150;-110.320;2023-08-06T07:46:02;29.70;99.90
64501;DHT22;50874;24.150;-110.320;2023-08-06T07:48:28;29.70;99.90
64501;DHT22;50874;24.150;-110.320;2023-08-06T07:50:55;29.70;99.90
64501;DHT22;50874;24.150;-110.320;2023-08-06T07:53:22;29.60;99.90
64501;DHT22;50874;24.150;-110.320;2023-08-06T07:55:50;29.70;99.90
64501;DHT22;50874;24.150;-110.320;2023-08-06T08:38:18;28.90;99.90
64501;DHT22;50874;24.150;-110.320;2023-08-06T08:40:51;29.70;99.90
64501;DHT22;50874;24.150;-110.320;2023-08-06T08:43:21;29.60;99.90
64501;DHT22;50874;24.150;-110.320;2023-08-06T08:45:52;29.60;99.90
64501;DHT22;50874;24.150;-110.320;2023-08-06T08:48:22;29.60;99.90
64501;DHT22;50874;24.150;-110.320;2023-08-06T08:50:49;29.60;99.90
64501;DHT22;50874;24.150;-110.320;2023-08-06T08:53:17;29.60;99.90
64501;DHT22;50874;24.150;-110.320;2023-08-06T08:55:46;29.60;99.90
64501;DHT22;50874;24.150;-110.320;2023-08-06T08:58:13;29.60;99.90
64501;DHT22;50874;24.150;-110.320;2023-08-06T09:00:42;29.70;99.90
64501;DHT22;50874;24.150;-110.320;2023-08-06T09:03:09;29.70;99.90
64501;DHT22;50874;24.150;-110.320;2023-08-06T09:05:36;29.70;99.90
64501;DHT22;50874;24.150;-110.320;2023-08-06T09:08:04;29.70;99.90
64501;DHT22;50874;24.150;-110.320;2023-08-06T09:10:31;29.80;99.90
64501;DHT22;50874;24.150;-110.320;2023-08-06T09:12:58;29.80;99.90
64501;DHT22;50874;24.150;-110.320;2023-08-06T09:15:27;29.80;99.90
64501;DHT22;50874;24.150;-110.320;2023-08-06T09:17:55;29.80;99.90
64501;DHT22;50874;24.150;-110.320;2023-08-06T09:20:21;29.90;99.90
64501;DHT22;50874;24.150;-110.320;2023-08-06T09:22:48;29.90;99.90
64501;DHT22;50874;24.150;-110.320;2023-08-06T09:25:24;29.90;99.90
64501;DHT22;50874;24.150;-110.320;2023-08-06T09:27:52;29.90;99.90
64501;DHT22;50874;24.150;-110.320;2023-08-06T09:30:35;29.90;99.90
64501;DHT22;50874;24.150;-110.320;2023-08-06T09:33:02;29.90;99.90
64501;DHT22;50874;24.150;-110.320;2023-08-06T09:35:32;29.90;99.90
64501;DHT22;50874;24.150;-110.320;2023-08-06T09:38:08;29.80;99.90
64501;DHT22;50874;24.150;-110.320;2023-08-06T09:40:37;29.90;99.90
64501;DHT22;50874;24.150;-110.320;2023-08-06T09:43:04;29.90;99.90
64501;DHT22;50874;24.150;-110.320;2023-08-06T09:45:33;29.80;99.90
64501;DHT22;50874;24.150;-110.320;2023-08-06T09:48:02;29.90;99.90
64501;DHT22;50874;24.150;-110.320;2023-08-06T09:50:31;29.90;99.90
64501;DHT22;50874;24.150;-110.320;2023-08-06T09:52:58;29.90;99.90
64501;DHT22;50874;24.150;-110.320;2023-08-06T09:55:26;29.80;99.90
64501;DHT22;50874;24.150;-110.320;2023-08-06T09:57:53;29.80;99.90
64501;DHT22;50874;24.150;-110.320;2023-08-06T10:00:21;29.80;99.90
64501;DHT22;50874;24.150;-110.320;2023-08-06T10:02:48;29.80;99.90
64501;DHT22;50874;24.150;-110.320;2023-08-06T10:05:16;29.90;99.90
64501;DHT22;50874;24.150;-110.320;2023-08-06T10:07:43;29.90;99.90
64501;DHT22;50874;24.150;-110.320;2023-08-06T10:10:11;29.90;99.90
64501;DHT22;50874;24.150;-110.320;2023-08-06T10:12:46;29.90;99.90
64501;DHT22;50874;24.150;-110.320;2023-08-06T10:15:16;30.00;99.90
64501;DHT22;50874;24.150;-110.320;2023-08-06T10:17:45;30.00;99.90
64501;DHT22;50874;24.150;-110.320;2023-08-06T10:20:12;29.90;99.90
64501;DHT22;50874;24.150;-110.320;2023-08-06T10:22:43;29.90;99.90
64501;DHT22;50874;24.150;-110.320;2023-08-06T10:25:17;29.90;99.90
64501;DHT22;50874;24.150;-110.320;2023-08-06T10:30:29;29.90;99.90
64501;DHT22;50874;24.150;-110.320;2023-08-06T10:33:00;29.90;99.90
64501;DHT22;50874;24.150;-110.320;2023-08-06T10:38:14;29.80;99.90
64501;DHT22;50874;24.150;-110.320;2023-08-06T10:40:49;29.80;99.90
64501;DHT22;50874;24.150;-110.320;2023-08-06T10:43:28;29.70;99.90
64501;DHT22;50874;24.150;-110.320;2023-08-06T10:45:55;29.70;99.90
64501;DHT22;50874;24.150;-110.320;2023-08-06T10:48:33;29.70;99.90
64501;DHT22;50874;24.150;-110.320;2023-08-06T10:51:00;29.70;99.90
64501;DHT22;50874;24.150;-110.320;2023-08-06T10:53:27;29.70;99.90
64501;DHT22;50874;24.150;-110.320;2023-08-06T10:55:54;29.60;99.90
64501;DHT22;50874;24.150;-110.320;2023-08-06T10:58:21;29.60;99.90
64501;DHT22;50874;24.150;-110.320;2023-08-06T11:00:47;29.60;99.90
64501;DHT22;50874;24.150;-110.320;2023-08-06T11:03:15;29.60;99.90
64501;DHT22;50874;24.150;-110.320;2023-08-06T11:05:48;29.60;99.90
64501;DHT22;50874;24.150;-110.320;2023-08-06T11:08:46;29.60;99.90
64501;DHT22;50874;24.150;-110.320;2023-08-06T11:11:14;29.60;99.90
64501;DHT22;50874;24.150;-110.320;2023-08-06T11:13:42;29.70;99.90
64501;DHT22;50874;24.150;-110.320;2023-08-06T11:16:09;29.70;99.90
64501;DHT22;50874;24.150;-110.320;2023-08-06T11:18:36;29.80;99.90
64501;DHT22;50874;24.150;-110.320;2023-08-06T11:21:03;29.80;99.90
64501;DHT22;50874;24.150;-110.320;2023-08-06T11:23:29;29.90;99.90
64501;DHT22;50874;24.150;-110.320;2023-08-06T11:25:58;29.90;99.90
64501;DHT22;50874;24.150;-110.320;2023-08-06T11:28:25;30.00;99.90
64501;DHT22;50874;24.150;-110.320;2023-08-06T11:30:52;30.00;99.90
64501;DHT22;50874;24.150;-110.320;2023-08-06T11:33:25;30.10;99.90
64501;DHT22;50874;24.150;-110.320;2023-08-06T11:35:53;30.10;99.90
64501;DHT22;50874;24.150;-110.320;2023-08-06T11:38:20;30.20;99.90
64501;DHT22;50874;24.150;-110.320;2023-08-06T11:40:50;30.20;99.90
64501;DHT22;50874;24.150;-110.320;2023-08-06T11:43:19;30.20;99.90
64501;DHT22;50874;24.150;-110.320;2023-08-06T11:45:49;30.20;99.90
64501;DHT22;50874;24.150;-110.320;2023-08-06T11:48:16;30.20;99.90
64501;DHT22;50874;24.150;-110.320;2023-08-06T11:50:44;30.20;99.90
64501;DHT22;50874;24.150;-110.320;2023-08-06T11:53:13;30.20;99.90
64501;DHT22;50874;24.150;-110.320;2023-08-06T11:55:40;30.20;99.90
64501;DHT22;50874;24.150;-110.320;2023-08-06T11:58:07;30.10;99.90
64501;DHT22;50874;24.150;-110.320;2023-08-06T12:00:33;30.00;99.90
64501;DHT22;50874;24.150;-110.320;2023-08-06T12:03:00;30.00;99.90
64501;DHT22;50874;24.150;-110.320;2023-08-06T12:05:31;30.00;99.90
64501;DHT22;50874;24.150;-110.320;2023-08-06T12:08:01;30.00;99.90
64501;DHT22;50874;24.150;-110.320;2023-08-06T12:10:30;30.00;99.90
64501;DHT22;50874;24.150;-110.320;2023-08-06T12:12:56;29.90;99.90
64501;DHT22;50874;24.150;-110.320;2023-08-06T12:15:23;29.90;99.90
64501;DHT22;50874;24.150;-110.320;2023-08-06T12:17:50;29.90;99.90
64501;DHT22;50874;24.150;-110.320;2023-08-06T12:20:17;29.80;99.90
64501;DHT22;50874;24.150;-110.320;2023-08-06T12:22:43;29.80;99.90
64501;DHT22;50874;24.150;-110.320;2023-08-06T12:25:12;29.80;99.90
64501;DHT22;50874;24.150;-110.320;2023-08-06T12:27:40;29.70;99.90
64501;DHT22;50874;24.150;-110.320;2023-08-06T12:30:07;29.70;99.90
64501;DHT22;50874;24.150;-110.320;2023-08-06T12:32:34;29.70;99.90
64501;DHT22;50874;24.150;-110.320;2023-08-06T12:35:01;29.70;99.90
64501;DHT22;50874;24.150;-110.320;2023-08-06T12:37:28;29.70;99.90
64501;DHT22;50874;24.150;-110.320;2023-08-06T12:39:54;29.70;99.90
64501;DHT22;50874;24.150;-110.320;2023-08-06T12:42:21;29.70;99.90
64501;DHT22;50874;24.150;-110.320;2023-08-06T12:44:51;29.70;99.90
64501;DHT22;50874;24.150;-110.320;2023-08-06T12:47:18;29.70;99.90
64501;DHT22;50874;24.150;-110.320;2023-08-06T12:49:45;29.70;99.90
64501;DHT22;50874;24.150;-110.320;2023-08-06T12:52:12;29.60;99.90
64501;DHT22;50874;24.150;-110.320;2023-08-06T12:54:41;29.60;99.90
64501;DHT22;50874;24.150;-110.320;2023-08-06T12:57:08;29.70;99.90
64501;DHT22;50874;24.150;-110.320;2023-08-06T12:59:34;29.60;99.90
64501;DHT22;50874;24.150;-110.320;2023-08-06T13:02:02;29.70;99.90
64501;DHT22;50874;24.150;-110.320;2023-08-06T13:04:29;29.70;99.90
64501;DHT22;50874;24.150;-110.320;2023-08-06T13:06:56;29.70;99.90
64501;DHT22;50874;24.150;-110.320;2023-08-06T13:09:22;29.70;99.90
64501;DHT22;50874;24.150;-110.320;2023-08-06T13:11:49;29.70;99.90
64501;DHT22;50874;24.150;-110.320;2023-08-06T13:14:17;29.80;99.90
64501;DHT22;50874;24.150;-110.320;2023-08-06T13:16:44;29.90;99.90
64501;DHT22;50874;24.150;-110.320;2023-08-06T13:19:11;29.90;99.90
64501;DHT22;50874;24.150;-110.320;2023-08-06T13:24:09;30.30;99.90
64501;DHT22;50874;24.150;-110.320;2023-08-06T13:26:35;30.60;99.90
64501;DHT22;50874;24.150;-110.320;2023-08-06T13:29:02;30.90;99.90
64501;DHT22;50874;24.150;-110.320;2023-08-06T13:31:29;31.20;99.90
64501;DHT22;50874;24.150;-110.320;2023-08-06T13:33:56;31.50;99.90
64501;DHT22;50874;24.150;-110.320;2023-08-06T13:36:25;31.80;99.90
64501;DHT22;50874;24.150;-110.320;2023-08-06T13:38:52;32.10;99.90
64501;DHT22;50874;24.150;-110.320;2023-08-06T13:41:19;32.20;99.90
64501;DHT22;50874;24.150;-110.320;2023-08-06T13:43:45;32.40;99.90
64501;DHT22;50874;24.150;-110.320;2023-08-06T13:46:12;32.70;99.90
64501;DHT22;50874;24.150;-110.320;2023-08-06T13:48:42;32.80;99.90
64501;DHT22;50874;24.150;-110.320;2023-08-06T13:51:10;33.10;99.90
64501;DHT22;50874;24.150;-110.320;2023-08-06T13:53:37;33.30;99.90
64501;DHT22;50874;24.150;-110.320;2023-08-06T13:56:05;33.50;99.90
64501;DHT22;50874;24.150;-110.320;2023-08-06T13:58:32;33.60;99.90
64501;DHT22;50874;24.150;-110.320;2023-08-06T14:00:59;33.60;99.90
64501;DHT22;50874;24.150;-110.320;2023-08-06T14:03:25;33.60;99.90
64501;DHT22;50874;24.150;-110.320;2023-08-06T14:05:52;33.80;99.90
64501;DHT22;50874;24.150;-110.320;2023-08-06T14:08:21;33.70;99.90
64501;DHT22;50874;24.150;-110.320;2023-08-06T14:10:48;33.70;99.90
64501;DHT22;50874;24.150;-110.320;2023-08-06T14:13:15;33.70;99.90
64501;DHT22;50874;24.150;-110.320;2023-08-06T14:15:41;33.70;99.90
64501;DHT22;50874;24.150;-110.320;2023-08-06T14:18:08;33.70;99.90
64501;DHT22;50874;24.150;-110.320;2023-08-06T14:20:34;34.00;99.90
64501;DHT22;50874;24.150;-110.320;2023-08-06T14:23:01;33.90;99.90
64501;DHT22;50874;24.150;-110.320;2023-08-06T14:25:28;33.80;99.90
64501;DHT22;50874;24.150;-110.320;2023-08-06T14:27:54;33.80;99.90
64501;DHT22;50874;24.150;-110.320;2023-08-06T14:30:21;34.10;99.90
64501;DHT22;50874;24.150;-110.320;2023-08-06T14:32:47;34.30;99.90
64501;DHT22;50874;24.150;-110.320;2023-08-06T14:35:14;34.10;99.90
64501;DHT22;50874;24.150;-110.320;2023-08-06T14:37:40;34.20;99.90
64501;DHT22;50874;24.150;-110.320;2023-08-06T14:40:07;33.80;99.90
64501;DHT22;50874;24.150;-110.320;2023-08-06T14:42:34;33.40;99.90
64501;DHT22;50874;24.150;-110.320;2023-08-06T14:45:01;33.30;99.90
64501;DHT22;50874;24.150;-110.320;2023-08-06T14:47:28;32.90;99.90
64501;DHT22;50874;24.150;-110.320;2023-08-06T14:49:54;32.80;99.90
64501;DHT22;50874;24.150;-110.320;2023-08-06T14:52:21;32.50;99.90
64501;DHT22;50874;24.150;-110.320;2023-08-06T14:54:47;32.50;99.90
64501;DHT22;50874;24.150;-110.320;2023-08-06T14:57:14;32.60;99.90
64501;DHT22;50874;24.150;-110.320;2023-08-06T14:59:40;32.60;99.90
64501;DHT22;50874;24.150;-110.320;2023-08-06T15:02:07;32.60;99.90
64501;DHT22;50874;24.150;-110.320;2023-08-06T15:04:33;32.50;99.90
64501;DHT22;50874;24.150;-110.320;2023-08-06T15:07:00;32.70;99.90
64501;DHT22;50874;24.150;-110.320;2023-08-06T15:09:26;33.50;99.90
64501;DHT22;50874;24.150;-110.320;2023-08-06T15:11:53;34.50;99.90
64501;DHT22;50874;24.150;-110.320;2023-08-06T15:14:19;34.30;99.90
64501;DHT22;50874;24.150;-110.320;2023-08-06T15:16:49;34.00;99.90
64501;DHT22;50874;24.150;-110.320;2023-08-06T15:19:17;34.30;99.90
64501;DHT22;50874;24.150;-110.320;2023-08-06T15:21:43;34.80;99.90
64501;DHT22;50874;24.150;-110.320;2023-08-06T15:24:10;34.90;99.90
64501;DHT22;50874;24.150;-110.320;2023-08-06T15:26:36;34.40;99.90
64501;DHT22;50874;24.150;-110.320;2023-08-06T15:29:03;34.00;99.90
64501;DHT22;50874;24.150;-110.320;2023-08-06T15:31:36;33.60;99.90
64501;DHT22;50874;24.150;-110.320;2023-08-06T15:34:05;33.30;99.90
64501;DHT22;50874;24.150;-110.320;2023-08-06T15:36:34;33.00;99.90
64501;DHT22;50874;24.150;-110.320;2023-08-06T15:39:01;32.90;99.90
64501;DHT22;50874;24.150;-110.320;2023-08-06T15:41:30;33.00;99.90
64501;DHT22;50874;24.150;-110.320;2023-08-06T15:43:57;33.10;99.90
64501;DHT22;50874;24.150;-110.320;2023-08-06T15:46:23;33.50;99.90
64501;DHT22;50874;24.150;-110.320;2023-08-06T15:48:50;33.80;99.90
64501;DHT22;50874;24.150;-110.320;2023-08-06T15:51:16;33.30;99.90
64501;DHT22;50874;24.150;-110.320;2023-08-06T15:53:43;32.50;99.90
64501;DHT22;50874;24.150;-110.320;2023-08-06T15:56:09;31.90;99.90
64501;DHT22;50874;24.150;-110.320;2023-08-06T15:58:36;31.50;99.90
64501;DHT22;50874;24.150;-110.320;2023-08-06T16:01:03;31.40;99.90
64501;DHT22;50874;24.150;-110.320;2023-08-06T16:03:29;31.40;99.90
64501;DHT22;50874;24.150;-110.320;2023-08-06T16:05:56;31.40;99.90
64501;DHT22;50874;24.150;-110.320;2023-08-06T16:08:22;31.30;99.90
64501;DHT22;50874;24.150;-110.320;2023-08-06T16:10:49;31.00;99.90
64501;DHT22;50874;24.150;-110.320;2023-08-06T16:13:16;30.50;99.90
64501;DHT22;50874;24.150;-110.320;2023-08-06T16:15:42;30.40;99.90
64501;DHT22;50874;24.150;-110.320;2023-08-06T16:18:09;30.60;99.90
64501;DHT22;50874;24.150;-110.320;2023-08-06T16:20:43;31.60;99.90
64501;DHT22;50874;24.150;-110.320;2023-08-06T16:23:10;32.10;99.90
64501;DHT22;50874;24.150;-110.320;2023-08-06T16:25:38;32.50;99.90
64501;DHT22;50874;24.150;-110.320;2023-08-06T16:28:05;32.70;99.90
64501;DHT22;50874;24.150;-110.320;2023-08-06T16:30:31;33.50;99.90
64501;DHT22;50874;24.150;-110.320;2023-08-06T16:32:58;34.40;99.90